createdAt,value
2022-11-24T00:01:18.422Z,4.03
2022-11-24T00:03:51.199Z,3.75
2022-11-24T00:06:18.724Z,4.70
2022-11-24T00:08:47.028Z,3.75
2022-11-24T00:11:25.816Z,4.38
2022-11-24T00:13:53.733Z,4.20
2022-11-24T00:16:29.262Z,4.05
2022-11-24T00:18:58.790Z,3.92
2022-11-24T00:21:27.547Z,4.28
2022-11-24T00:23:55.431Z,4.00
2022-11-24T00:26:34.611Z,3.47
2022-11-24T00:29:05.621Z,4.07
2022-11-24T00:31:38.731Z,3.88
2022-11-24T00:34:10.195Z,4.50
2022-11-24T00:36:38.257Z,4.18
2022-11-24T00:39:11.720Z,4.50
2022-11-24T00:41:39.435Z,3.95
2022-11-24T00:44:07.239Z,4.55
2022-11-24T00:46:35.136Z,4.15
2022-11-24T00:49:02.888Z,4.10
2022-11-24T00:51:30.635Z,3.80
2022-11-24T00:53:59.236Z,4.22
2022-11-24T00:56:27.703Z,4.07
2022-11-24T00:58:55.345Z,3.85
2022-11-24T01:01:25.631Z,4.07
2022-11-24T01:03:55.318Z,3.97
2022-11-24T01:06:28.554Z,4.40
2022-11-24T01:08:57.980Z,3.92
2022-11-24T01:11:54.343Z,4.18
2022-11-24T01:14:24.415Z,3.78
2022-11-24T01:16:52.350Z,4.15
2022-11-24T01:19:20.050Z,3.58
2022-11-24T01:21:47.956Z,3.55
2022-11-24T01:24:15.588Z,3.80
2022-11-24T01:26:43.209Z,4.28
2022-11-24T01:29:12.040Z,4.13
2022-11-24T01:31:39.747Z,3.50
2022-11-24T01:34:07.318Z,3.47
2022-11-24T01:36:34.964Z,4.20
2022-11-24T01:39:02.547Z,3.92
2022-11-24T01:41:30.079Z,3.88
2022-11-24T01:43:57.967Z,3.58
2022-11-24T01:46:46.032Z,4.05
2022-11-24T01:49:23.091Z,4.20
2022-11-24T01:52:05.470Z,3.80
2022-11-24T01:54:36.979Z,3.50
2022-11-24T01:57:30.290Z,3.92
2022-11-24T02:00:04.544Z,3.90
2022-11-24T02:02:43.429Z,4.13
2022-11-24T02:05:24.325Z,4.07
2022-11-24T02:07:54.294Z,4.30
2022-11-24T02:10:23.484Z,3.67
2022-11-24T02:12:52.749Z,4.30
2022-11-24T02:15:21.195Z,3.80
2022-11-24T02:17:48.751Z,3.38
2022-11-24T02:20:16.960Z,4.03
2022-11-24T02:22:56.416Z,4.20
2022-11-24T02:25:42.054Z,3.75
2022-11-24T02:28:14.017Z,3.88
2022-11-24T02:30:41.737Z,3.67
2022-11-24T02:33:10.596Z,3.95
2022-11-24T02:35:38.694Z,4.50
2022-11-24T02:38:06.294Z,4.15
2022-11-24T02:40:33.992Z,4.00
2022-11-24T02:43:07.951Z,4.28
2022-11-24T02:45:35.536Z,4.13
2022-11-24T02:48:03.275Z,4.03
2022-11-24T02:50:30.850Z,3.85
2022-11-24T02:52:58.437Z,4.20
2022-11-24T02:55:26.097Z,5.60
2022-11-24T02:57:53.632Z,4.47
2022-11-24T03:00:21.972Z,3.78
2022-11-24T03:02:49.680Z,4.22
2022-11-24T03:05:17.375Z,3.88
2022-11-24T03:07:45.037Z,4.35
2022-11-24T03:10:12.654Z,4.35
2022-11-24T03:12:40.287Z,4.38
2022-11-24T03:15:08.281Z,4.53
2022-11-24T03:17:36.062Z,4.28
2022-11-24T03:20:05.297Z,4.55
2022-11-24T03:22:33.276Z,4.20
2022-11-24T03:25:01.030Z,4.60
2022-11-24T03:27:28.568Z,4.57
2022-11-24T03:29:56.127Z,4.25
2022-11-24T03:32:23.802Z,4.60
2022-11-24T03:34:51.327Z,4.70
2022-11-24T03:37:18.882Z,4.10
2022-11-24T03:39:46.442Z,4.55
2022-11-24T03:42:14.151Z,4.38
2022-11-24T03:44:41.695Z,4.38
2022-11-24T03:47:10.778Z,4.25
2022-11-24T03:49:38.704Z,5.20
2022-11-24T03:52:08.203Z,5.32
2022-11-24T03:54:36.383Z,5.05
2022-11-24T03:57:04.060Z,4.68
2022-11-24T03:59:31.589Z,4.18
2022-11-24T04:01:59.176Z,4.57
2022-11-24T04:04:26.749Z,5.00
2022-11-24T04:06:54.276Z,4.43
2022-11-24T04:09:21.916Z,4.60
2022-11-24T04:12:07.767Z,5.00
2022-11-24T04:17:04.406Z,4.85
2022-11-24T04:19:31.948Z,4.18
2022-11-24T04:21:59.551Z,4.07
2022-11-24T04:24:27.153Z,4.68
2022-11-24T04:26:54.707Z,4.07
2022-11-24T04:29:22.263Z,4.63
2022-11-24T04:31:49.849Z,4.45
2022-11-24T04:34:17.419Z,4.43
2022-11-24T04:36:44.955Z,4.90
2022-11-24T04:39:22.974Z,4.32
2022-11-24T04:41:53.729Z,3.83
2022-11-24T04:44:21.295Z,3.45
2022-11-24T04:46:49.129Z,2.88
2022-11-24T04:49:16.775Z,2.55
2022-11-24T04:51:44.587Z,2.05
2022-11-24T04:54:13.802Z,2.67
2022-11-24T04:56:42.321Z,2.38
2022-11-24T04:59:16.192Z,2.22
2022-11-24T05:01:45.063Z,2.13
2022-11-24T05:04:14.329Z,2.58
2022-11-24T05:06:42.279Z,2.30
2022-11-24T05:09:13.600Z,2.30
2022-11-24T05:11:41.416Z,2.42
2022-11-24T05:14:08.972Z,2.42
2022-11-24T05:16:37.834Z,2.10
2022-11-24T05:19:05.517Z,2.55
2022-11-24T05:21:33.285Z,2.45
2022-11-24T05:24:00.852Z,2.40
2022-11-24T05:26:29.027Z,2.83
2022-11-24T05:28:56.626Z,3.60
2022-11-24T05:31:24.228Z,2.95
2022-11-24T05:33:51.802Z,3.10
2022-11-24T05:36:37.827Z,3.00
2022-11-24T05:41:32.872Z,3.28
2022-11-24T05:44:01.517Z,2.88
2022-11-24T05:46:29.157Z,3.03
2022-11-24T05:48:56.824Z,3.50
2022-11-24T05:51:24.371Z,3.10
2022-11-24T05:53:51.904Z,3.00
2022-11-24T05:56:19.453Z,3.30
2022-11-24T05:58:46.990Z,3.08
2022-11-24T06:01:14.583Z,3.05
2022-11-24T06:03:42.196Z,3.47
2022-11-24T06:06:10.466Z,4.10
2022-11-24T06:08:38.014Z,3.40
2022-11-24T06:11:17.588Z,3.28
2022-11-24T06:13:47.006Z,4.20
2022-11-24T06:16:15.295Z,3.63
2022-11-24T06:18:43.020Z,3.67
2022-11-24T06:21:11.868Z,3.10
2022-11-24T06:23:40.429Z,3.40
2022-11-24T06:26:09.154Z,4.55
2022-11-24T06:28:36.959Z,4.03
2022-11-24T06:31:05.417Z,3.53
2022-11-24T06:33:34.575Z,2.28
2022-11-24T06:36:07.928Z,3.15
2022-11-24T06:38:36.309Z,3.45
2022-11-24T06:41:22.290Z,3.00
2022-11-24T06:43:50.087Z,3.10
2022-11-24T06:46:17.716Z,3.40
2022-11-24T06:48:45.388Z,4.22
2022-11-24T06:51:13.609Z,3.60
2022-11-24T06:53:41.562Z,3.47
2022-11-24T06:56:16.732Z,3.28
2022-11-24T06:58:46.542Z,4.53
2022-11-24T07:01:25.844Z,3.70
2022-11-24T07:03:54.607Z,2.63
2022-11-24T07:06:23.625Z,3.63
2022-11-24T07:08:51.751Z,3.13
2022-11-24T07:11:22.327Z,4.45
2022-11-24T07:13:56.505Z,3.45
2022-11-24T07:16:26.946Z,3.00
2022-11-24T07:18:55.284Z,2.60
2022-11-24T07:21:23.981Z,3.00
2022-11-24T07:23:52.979Z,2.72
2022-11-24T07:26:22.601Z,2.63
2022-11-24T07:28:50.851Z,3.20
2022-11-24T07:31:24.979Z,2.95
2022-11-24T07:33:54.273Z,2.78
2022-11-24T07:36:22.704Z,2.65
2022-11-24T07:38:50.557Z,2.60
2022-11-24T07:41:19.670Z,3.55
2022-11-24T07:43:47.779Z,3.03
2022-11-24T07:46:17.465Z,3.35
2022-11-24T07:48:45.653Z,2.47
2022-11-24T07:51:13.376Z,2.80
2022-11-24T07:53:41.083Z,2.78
2022-11-24T07:56:10.065Z,2.65
2022-11-24T07:58:38.390Z,2.95
2022-11-24T08:01:13.337Z,2.90
2022-11-24T08:03:41.469Z,3.28
2022-11-24T08:06:24.490Z,2.70
2022-11-24T08:11:23.033Z,3.30
2022-11-24T08:13:50.653Z,3.20
2022-11-24T08:16:19.338Z,3.00
2022-11-24T08:18:55.075Z,3.20
2022-11-24T08:21:23.672Z,3.28
2022-11-24T08:23:55.223Z,3.55
2022-11-24T08:26:24.848Z,2.97
2022-11-24T08:28:59.751Z,3.33
2022-11-24T08:31:33.383Z,3.00
2022-11-24T08:34:02.464Z,3.70
2022-11-24T08:36:30.086Z,3.50
2022-11-24T08:38:59.215Z,3.35
2022-11-24T08:41:27.714Z,3.42
2022-11-24T08:43:55.804Z,3.60
2022-11-24T08:46:24.001Z,3.80
2022-11-24T08:48:53.689Z,3.72
2022-11-24T08:51:24.113Z,3.50
2022-11-24T08:53:58.429Z,4.15
2022-11-24T08:56:30.539Z,3.72
2022-11-24T08:58:58.286Z,3.50
2022-11-24T09:01:26.417Z,3.28
2022-11-24T09:03:54.511Z,3.05
2022-11-24T09:06:25.105Z,3.42
2022-11-24T09:08:54.368Z,3.35
2022-11-24T09:11:22.621Z,3.00
2022-11-24T09:13:50.474Z,3.42
2022-11-24T09:16:23.149Z,3.72
2022-11-24T09:18:59.626Z,3.20
2022-11-24T09:21:27.889Z,3.30
2022-11-24T09:23:55.930Z,4.28
2022-11-24T09:26:29.150Z,3.80
2022-11-24T09:28:57.812Z,3.80
2022-11-24T09:31:27.677Z,3.75
2022-11-24T09:33:55.508Z,3.80
2022-11-24T09:36:23.561Z,3.55
2022-11-24T09:38:51.244Z,3.50
2022-11-24T09:41:28.029Z,3.72
2022-11-24T09:44:03.049Z,3.70
2022-11-24T09:46:59.806Z,3.42
2022-11-24T09:49:39.332Z,4.32
2022-11-24T09:52:11.357Z,3.75
2022-11-24T09:54:47.072Z,3.47
2022-11-24T09:57:15.739Z,3.60
2022-11-24T09:59:43.470Z,3.78
2022-11-24T10:02:13.057Z,4.13
2022-11-24T10:04:43.317Z,4.72
2022-11-24T10:07:42.821Z,4.45
2022-11-24T10:10:24.513Z,4.40
2022-11-24T10:13:25.331Z,3.83
2022-11-24T10:16:11.016Z,3.90
2022-11-24T10:18:41.704Z,4.50
2022-11-24T10:21:22.620Z,4.45
2022-11-24T10:23:55.210Z,5.10
2022-11-24T10:26:42.391Z,3.58
2022-11-24T10:29:20.483Z,4.32
2022-11-24T10:31:51.965Z,3.90
2022-11-24T10:34:35.246Z,4.40
2022-11-24T10:37:14.421Z,4.85
2022-11-24T10:40:13.632Z,4.72
2022-11-24T10:42:54.408Z,4.25
2022-11-24T10:45:22.841Z,5.38
2022-11-24T10:47:50.731Z,5.30
2022-11-24T10:50:37.104Z,4.78
2022-11-24T10:53:10.439Z,4.57
2022-11-24T10:55:57.702Z,4.32
2022-11-24T10:58:40.417Z,4.57
2022-11-24T11:01:14.012Z,5.03
2022-11-24T11:03:55.940Z,4.90
2022-11-24T11:06:25.759Z,4.45
2022-11-24T11:09:08.664Z,5.50
2022-11-24T11:11:39.224Z,5.22
2022-11-24T11:14:08.909Z,4.65
2022-11-24T11:16:38.330Z,7.63
2022-11-24T11:19:49.367Z,5.05
2022-11-24T11:22:26.478Z,7.38
2022-11-24T11:25:11.342Z,4.50
2022-11-24T11:27:40.761Z,4.80
2022-11-24T11:36:13.690Z,4.78
2022-11-24T11:38:41.764Z,4.53
2022-11-24T11:41:19.208Z,4.90
2022-11-24T11:43:49.114Z,5.05
2022-11-24T11:46:17.141Z,4.30
2022-11-24T11:48:46.900Z,5.47
2022-11-24T11:51:24.435Z,6.70
2022-11-24T11:54:16.708Z,6.43
2022-11-24T11:56:49.742Z,6.07
2022-11-24T11:59:45.293Z,5.13
2022-11-24T12:02:53.181Z,7.05
2022-11-24T12:05:31.677Z,5.53
2022-11-24T12:08:21.007Z,6.80
2022-11-24T12:10:58.844Z,6.47
2022-11-24T12:14:01.437Z,6.40
2022-11-24T12:16:52.744Z,6.53
2022-11-24T12:19:41.969Z,5.57
2022-11-24T12:22:33.748Z,5.88
2022-11-24T12:25:26.298Z,5.63
2022-11-24T12:28:11.315Z,5.18
2022-11-24T12:31:07.950Z,6.15
2022-11-24T12:34:03.168Z,5.35
2022-11-24T12:36:33.578Z,5.90
2022-11-24T12:39:19.903Z,6.80
2022-11-24T12:42:41.450Z,5.60
2022-11-24T12:45:28.589Z,4.93
2022-11-24T12:48:13.906Z,5.78
2022-11-24T12:50:43.437Z,4.90
2022-11-24T12:53:19.039Z,6.07
2022-11-24T12:55:47.234Z,5.70
2022-11-24T12:58:21.000Z,4.95
2022-11-24T13:01:19.373Z,5.43
2022-11-24T13:03:56.128Z,5.22
2022-11-24T13:06:49.035Z,4.95
2022-11-24T13:09:17.731Z,5.40
2022-11-24T13:11:50.513Z,5.10
2022-11-24T13:14:18.930Z,5.13
2022-11-24T13:19:45.776Z,5.18
2022-11-24T13:22:24.893Z,4.93
2022-11-24T13:25:21.723Z,4.97
2022-11-24T13:27:53.119Z,4.82
2022-11-24T13:30:36.104Z,4.57
2022-11-24T13:33:16.608Z,4.60
2022-11-24T13:36:03.063Z,4.90
2022-11-24T13:41:32.194Z,4.72
2022-11-24T13:44:23.529Z,4.65
2022-11-24T13:47:06.967Z,4.45
2022-11-24T13:49:42.528Z,4.90
2022-11-24T13:52:36.580Z,4.38
2022-11-24T13:55:11.788Z,4.65
2022-11-24T13:57:56.165Z,5.95
2022-11-24T14:00:34.075Z,4.40
2022-11-24T14:03:06.932Z,3.83
2022-11-24T14:05:38.146Z,4.45
2022-11-24T14:08:21.503Z,4.55
2022-11-24T14:10:49.387Z,4.18
2022-11-24T14:13:21.153Z,4.28
2022-11-24T14:16:13.637Z,4.07
2022-11-24T14:18:43.284Z,4.70
2022-11-24T14:21:31.245Z,4.13
2022-11-24T14:24:01.357Z,4.78
2022-11-24T14:26:39.992Z,4.78
2022-11-24T14:29:21.915Z,5.20
2022-11-24T14:31:57.991Z,4.22
2022-11-24T14:34:28.329Z,4.60
2022-11-24T14:36:56.948Z,5.28
2022-11-24T14:39:26.416Z,4.88
2022-11-24T14:42:05.542Z,3.90
2022-11-24T14:44:41.891Z,4.28
2022-11-24T14:49:45.317Z,4.18
2022-11-24T14:52:16.010Z,5.03
2022-11-24T14:55:03.962Z,4.30
2022-11-24T14:57:45.377Z,4.57
2022-11-24T15:00:12.914Z,4.30
2022-11-24T15:02:48.502Z,4.43
2022-11-24T15:05:16.622Z,4.50
2022-11-24T15:07:46.607Z,4.38
2022-11-24T15:10:35.274Z,4.65
2022-11-24T15:13:05.674Z,5.13
2022-11-24T15:15:35.871Z,4.70
2022-11-24T15:18:05.349Z,4.43
2022-11-24T15:20:47.570Z,4.10
2022-11-24T15:23:36.219Z,5.40
2022-11-24T15:26:06.648Z,4.53
2022-11-24T15:28:34.252Z,5.22
2022-11-24T15:31:09.211Z,4.72
2022-11-24T15:33:37.024Z,5.00
2022-11-24T15:36:04.963Z,4.68
2022-11-24T15:38:32.560Z,4.50
2022-11-24T15:41:01.500Z,4.00
2022-11-24T15:43:36.141Z,4.72
2022-11-24T15:46:05.319Z,4.47
2022-11-24T15:48:32.910Z,4.90
2022-11-24T15:51:03.687Z,5.25
2022-11-24T15:53:34.200Z,4.60
2022-11-24T15:56:03.096Z,5.25
2022-11-24T15:58:30.641Z,5.22
2022-11-24T16:00:58.372Z,5.07
2022-11-24T16:06:24.770Z,5.05
2022-11-24T16:08:53.728Z,4.97
2022-11-24T16:11:22.069Z,5.00
2022-11-24T16:13:52.979Z,4.55
2022-11-24T16:16:22.792Z,5.70
2022-11-24T16:18:50.769Z,6.45
2022-11-24T16:21:18.378Z,4.97
2022-11-24T16:23:46.580Z,5.25
2022-11-24T16:26:14.196Z,4.82
2022-11-24T16:28:42.806Z,4.90
2022-11-24T16:31:10.682Z,5.20
2022-11-24T16:33:40.742Z,4.55
2022-11-24T16:36:09.150Z,5.10
2022-11-24T16:38:36.716Z,5.03
2022-11-24T16:41:04.299Z,4.75
2022-11-24T16:43:31.930Z,5.15
2022-11-24T16:46:19.612Z,3.90
2022-11-24T16:48:52.440Z,4.75
2022-11-24T16:51:22.064Z,3.72
2022-11-24T16:53:56.730Z,5.20
2022-11-24T16:56:24.384Z,4.60
2022-11-24T16:58:51.983Z,6.05
2022-11-24T17:01:19.589Z,5.95
2022-11-24T17:03:47.195Z,4.80
2022-11-24T17:06:16.439Z,4.22
2022-11-24T17:08:45.183Z,4.95
2022-11-24T17:11:13.738Z,5.50
2022-11-24T17:13:42.070Z,4.50
2022-11-24T17:16:14.885Z,5.72
2022-11-24T17:18:43.033Z,4.93
2022-11-24T17:21:24.792Z,4.90
2022-11-24T17:23:57.264Z,4.97
2022-11-24T17:26:25.445Z,3.78
2022-11-24T17:28:53.653Z,3.78
2022-11-24T17:31:22.629Z,3.70
2022-11-24T17:33:55.246Z,4.57
2022-11-24T17:36:23.380Z,3.60
2022-11-24T17:38:51.014Z,5.00
2022-11-24T17:41:19.019Z,4.38
2022-11-24T17:43:50.560Z,6.03
2022-11-24T17:46:18.478Z,5.85
2022-11-24T17:48:46.929Z,5.95
2022-11-24T17:51:16.538Z,4.88
2022-11-24T17:53:45.964Z,3.75
2022-11-24T17:56:18.634Z,4.35
2022-11-24T17:58:46.284Z,3.92
2022-11-24T18:01:15.379Z,4.38
2022-11-24T18:03:42.978Z,4.57
2022-11-24T18:06:15.365Z,4.45
2022-11-24T18:08:45.296Z,3.75
2022-11-24T18:11:19.970Z,5.00
2022-11-24T18:13:58.475Z,4.90
2022-11-24T18:16:30.266Z,4.75
2022-11-24T18:19:07.829Z,4.57
2022-11-24T18:21:38.498Z,4.80
2022-11-24T18:24:06.813Z,4.57
2022-11-24T18:26:34.474Z,4.93
2022-11-24T18:29:02.086Z,4.70
2022-11-24T18:31:31.271Z,4.40
2022-11-24T18:34:00.255Z,4.75
2022-11-24T18:36:30.576Z,4.80
2022-11-24T18:39:09.113Z,5.60
2022-11-24T18:41:36.690Z,5.55
2022-11-24T18:44:07.918Z,5.30
2022-11-24T18:46:36.044Z,5.28
2022-11-24T18:49:03.731Z,4.57
2022-11-24T18:51:31.299Z,6.00
2022-11-24T18:53:58.980Z,5.70
2022-11-24T18:56:27.177Z,5.18
2022-11-24T18:58:56.013Z,5.20
2022-11-24T19:01:26.336Z,5.25
2022-11-24T19:03:56.311Z,4.45
2022-11-24T19:06:32.243Z,5.28
2022-11-24T19:09:02.929Z,3.85
2022-11-24T19:11:36.052Z,4.38
2022-11-24T19:14:06.187Z,4.60
2022-11-24T19:16:34.432Z,4.45
2022-11-24T19:19:02.973Z,4.93
2022-11-24T19:21:38.550Z,4.88
2022-11-24T19:24:07.664Z,4.82
2022-11-24T19:26:35.518Z,4.75
2022-11-24T19:29:03.578Z,4.50
2022-11-24T19:31:31.541Z,5.28
2022-11-24T19:33:59.781Z,5.07
2022-11-24T19:36:27.875Z,6.05
2022-11-24T19:38:56.702Z,6.10
2022-11-24T19:41:26.787Z,4.93
2022-11-24T19:43:54.788Z,4.80
2022-11-24T19:46:26.166Z,4.53
2022-11-24T19:48:56.191Z,5.20
2022-11-24T19:51:27.231Z,5.55
2022-11-24T19:53:57.686Z,4.90
2022-11-24T19:56:27.481Z,4.88
2022-11-24T19:58:56.130Z,5.05
2022-11-24T20:01:26.387Z,5.32
2022-11-24T20:04:02.134Z,5.63
2022-11-24T20:06:32.575Z,4.32
2022-11-24T20:09:00.814Z,5.55
2022-11-24T20:11:29.136Z,5.07
2022-11-24T20:13:57.840Z,4.82
2022-11-24T20:16:28.202Z,4.78
2022-11-24T20:19:07.477Z,4.65
2022-11-24T20:21:37.167Z,5.13
2022-11-24T20:24:06.242Z,4.90
2022-11-24T20:26:36.590Z,4.30
2022-11-24T20:29:04.783Z,4.50
2022-11-24T20:31:34.645Z,4.43
2022-11-24T20:34:03.785Z,5.15
2022-11-24T20:36:32.501Z,4.80
2022-11-24T20:39:03.103Z,4.75
2022-11-24T20:41:33.894Z,5.22
2022-11-24T20:44:08.149Z,5.13
2022-11-24T20:46:38.123Z,4.78
2022-11-24T20:49:06.772Z,4.47
2022-11-24T20:51:37.084Z,4.60
2022-11-24T20:54:07.565Z,4.35
2022-11-24T20:56:37.164Z,4.72
2022-11-24T20:59:04.876Z,4.13
2022-11-24T21:01:38.643Z,4.38
2022-11-24T21:04:08.591Z,5.43
2022-11-24T21:06:36.646Z,4.95
2022-11-24T21:09:05.585Z,4.15
2022-11-24T21:11:33.534Z,4.28
2022-11-24T21:14:01.656Z,4.28
2022-11-24T21:16:34.290Z,5.15
2022-11-24T21:19:06.918Z,4.35
2022-11-24T21:21:36.261Z,4.47
2022-11-24T21:24:15.437Z,4.50
2022-11-24T21:26:44.268Z,5.00
2022-11-24T21:29:17.134Z,4.30
2022-11-24T21:31:44.892Z,4.32
2022-11-24T21:34:16.411Z,4.72
2022-11-24T21:36:45.170Z,4.75
2022-11-24T21:39:14.048Z,3.30
2022-11-24T21:41:42.309Z,4.50
2022-11-24T21:44:14.567Z,4.57
2022-11-24T21:46:48.273Z,4.43
2022-11-24T21:51:46.167Z,4.70
2022-11-24T21:54:13.831Z,4.95
2022-11-24T21:56:41.371Z,4.63
2022-11-24T21:59:08.946Z,5.82
2022-11-24T22:01:36.563Z,5.05
2022-11-24T22:04:04.350Z,5.18
2022-11-24T22:06:33.253Z,4.68
2022-11-24T22:09:00.963Z,4.53
2022-11-24T22:11:28.561Z,4.60
2022-11-24T22:13:56.123Z,4.78
2022-11-24T22:16:24.916Z,4.78
2022-11-24T22:18:52.729Z,4.85
2022-11-24T22:21:30.515Z,4.70
2022-11-24T22:23:58.335Z,4.63
2022-11-24T22:26:26.777Z,4.95
2022-11-24T22:28:55.948Z,4.40
2022-11-24T22:31:25.416Z,4.90
2022-11-24T22:33:53.925Z,5.00
2022-11-24T22:36:23.544Z,4.88
2022-11-24T22:38:55.625Z,5.25
2022-11-24T22:41:23.455Z,4.60
2022-11-24T22:43:51.578Z,4.55
2022-11-24T22:46:21.286Z,4.57
2022-11-24T22:48:49.898Z,5.20
2022-11-24T22:51:23.951Z,5.15
2022-11-24T22:54:02.812Z,4.90
2022-11-24T22:56:33.721Z,4.85
2022-11-24T22:59:02.265Z,5.07
2022-11-24T23:01:30.653Z,4.80
2022-11-24T23:03:58.307Z,5.30
2022-11-24T23:06:28.675Z,4.57
2022-11-24T23:08:57.984Z,4.40
2022-11-24T23:11:38.413Z,5.05
2022-11-24T23:14:14.025Z,5.25
2022-11-24T23:16:42.487Z,5.07
2022-11-24T23:19:10.275Z,5.43
2022-11-24T23:21:38.684Z,4.28
2022-11-24T23:24:07.418Z,4.80
2022-11-24T23:26:38.535Z,4.60
2022-11-24T23:29:06.812Z,4.60
2022-11-24T23:31:34.786Z,4.90
2022-11-24T23:34:04.187Z,4.03
2022-11-24T23:36:32.594Z,4.13
2022-11-24T23:39:08.529Z,4.30
2022-11-24T23:41:36.240Z,4.43
2022-11-24T23:44:03.886Z,4.75
2022-11-24T23:46:31.842Z,4.63
2022-11-24T23:48:59.800Z,4.97
2022-11-24T23:51:32.060Z,4.28
2022-11-24T23:54:00.458Z,4.70
2022-11-24T23:56:33.698Z,4.65
2022-11-24T23:59:02.699Z,4.60
